Punta de Vacas, Argentina
Current Conditions -  °F | °C
As of 10:00 PM on Monday 24 Nov 2014 (Local Time) from SAME Reporting Station
Clear Clear  
Wind Chill: 66°   Ceiling: Unl
Heat Index: 66°   Visibility: 6mi
Dew Point: 43°   Wind: 0mph
Humidity: 43%   Direction: NA
Pressure: 29.94"   Gusts: NA
Location:  32.85°S, 69.76°W
Report Text: SAME 250100Z 00000KT CAVOK 19/06 Q1014
Loading
Personal Weather Stations






























Interactive Weather Map New forecast layout! Learn more

10-Day Weather Forecast

Advertisements
Track Severe Weather on mobile